Airfield :
LOGIN :

Register | Disclaimer

   EN    FR    IT 

 










Legend :    VFR   Marginal VFR   IFR   Intensive IFR   Very Intensive IFR
Visi :
Ceiling :
>= 8 km
>= 3000ft
5 to 8 km
1000 to 3000 ft
1500m to 5 km
500 to 1000 ft
800 to 1500m
200 to 500 ft
< 800m
< 200 ft
Symbols :   Thunderstorms  Fog  Heavy snow  Heavy precipitations  Wind > 20 kt
SIGMETs :     Misc.  Thunderstorms  Icing  Turbulence  Mountain Waves  Volcanic Ashes






- Airport Elevation : 14 ft
- IATA code : BRE


EDDW - Bremen Neuenland

CURRENT METAR :
  • 192320Z VRB01KT 0200 R27/0550N FG BKN001 01/01 Q1019

EXPIRED METARs :
  • 192250Z VRB01KT 0200 R27/0550N FG BKN001 01/01 Q1019
  • 192220Z 16005KT 0200 R27/0550V0750N FG BKN001 00/00 Q1019
  • 192150Z VRB02KT 0200 R27/0800U FG BKN001 01/01 Q1019
  • 192120Z 20003KT 0200 R27/0400V0550N FG BKN001 01/01 Q1018 TEMPO 0100
  • 192050Z VRB02KT 0200 R27/0400V0550N FG BKN001 01/01 Q1018 TEMPO 0100

TAF TAF EDDW
Valid from the 20 at 00:00 until the 21 at 00:00 UTC


192300Z 2000/2024 VRB02KT 0200 FG BKN001
TEMPO 2002/2009 0100 FZFG
BECMG 2009/2011 2000 BR BKN004
BECMG 2011/2013 6000 BKN011
BECMG 2018/2020 BKN008
TEMPO 2018/2024 1200 BCFG BKN004



MET'MAP, your aeronautical weather chart ! - Copyright ORBIFLY December 2007 - Disclaimer

ORBIFLY MET'MAP TEAM :

Programming & Development : Alexandra Zaïnal
Concept & Development : Baudouin d'Aumeries
Co-Development & Prog : Marc-Olivier Méhu
Technical & hardware support : Manuel Goepfert

Contact : metmap@orbifly.com




SOURCES & CREDITS :

   NOAA